sensor_id;sensor_type;location;lat;lon;timestamp;P1;durP1;ratioP1;P2;durP2;ratioP2
29712;SDS011;16623;53.632;10.016;2023-04-24T00:00:54;7.15;;;5.22;;
29712;SDS011;16623;53.632;10.016;2023-04-24T00:03:26;9.18;;;5.80;;
29712;SDS011;16623;53.632;10.016;2023-04-24T00:05:55;8.93;;;5.60;;
29712;SDS011;16623;53.632;10.016;2023-04-24T00:08:21;6.75;;;6.05;;
29712;SDS011;16623;53.632;10.016;2023-04-24T00:10:49;7.07;;;5.95;;
29712;SDS011;16623;53.632;10.016;2023-04-24T00:13:14;8.60;;;5.80;;
29712;SDS011;16623;53.632;10.016;2023-04-24T00:15:40;9.00;;;6.45;;
29712;SDS011;16623;53.632;10.016;2023-04-24T00:18:05;10.63;;;6.05;;
29712;SDS011;16623;53.632;10.016;2023-04-24T00:20:31;9.07;;;6.22;;
29712;SDS011;16623;53.632;10.016;2023-04-24T00:23:00;7.85;;;5.82;;
29712;SDS011;16623;53.632;10.016;2023-04-24T00:25:26;10.07;;;6.15;;
29712;SDS011;16623;53.632;10.016;2023-04-24T00:27:51;11.15;;;6.35;;
29712;SDS011;16623;53.632;10.016;2023-04-24T00:30:17;11.15;;;5.55;;
29712;SDS011;16623;53.632;10.016;2023-04-24T00:32:43;9.45;;;6.53;;
29712;SDS011;16623;53.632;10.016;2023-04-24T00:35:10;7.53;;;5.85;;
29712;SDS011;16623;53.632;10.016;2023-04-24T00:37:36;7.00;;;6.13;;
29712;SDS011;16623;53.632;10.016;2023-04-24T00:40:01;8.20;;;5.95;;
29712;SDS011;16623;53.632;10.016;2023-04-24T00:42:28;8.40;;;5.60;;
29712;SDS011;16623;53.632;10.016;2023-04-24T00:44:53;14.15;;;6.32;;
29712;SDS011;16623;53.632;10.016;2023-04-24T00:47:19;6.82;;;5.88;;
29712;SDS011;16623;53.632;10.016;2023-04-24T00:49:46;10.10;;;5.40;;
29712;SDS011;16623;53.632;10.016;2023-04-24T00:52:12;7.85;;;5.30;;
29712;SDS011;16623;53.632;10.016;2023-04-24T00:54:42;9.50;;;6.15;;
29712;SDS011;16623;53.632;10.016;2023-04-24T00:57:09;6.60;;;5.65;;
29712;SDS011;16623;53.632;10.016;2023-04-24T00:59:34;8.23;;;5.90;;
29712;SDS011;16623;53.632;10.016;2023-04-24T01:02:01;9.10;;;5.85;;
29712;SDS011;16623;53.632;10.016;2023-04-24T01:04:27;7.47;;;6.20;;
29712;SDS011;16623;53.632;10.016;2023-04-24T01:06:53;6.95;;;6.00;;
29712;SDS011;16623;53.632;10.016;2023-04-24T01:09:21;8.23;;;6.38;;
29712;SDS011;16623;53.632;10.016;2023-04-24T01:11:48;7.00;;;5.88;;
29712;SDS011;16623;53.632;10.016;2023-04-24T01:14:17;5.80;;;5.30;;
29712;SDS011;16623;53.632;10.016;2023-04-24T01:16:43;10.35;;;6.13;;
29712;SDS011;16623;53.632;10.016;2023-04-24T01:19:09;7.90;;;6.22;;
29712;SDS011;16623;53.632;10.016;2023-04-24T01:21:37;7.43;;;5.30;;
29712;SDS011;16623;53.632;10.016;2023-04-24T01:24:04;7.00;;;6.30;;
29712;SDS011;16623;53.632;10.016;2023-04-24T01:26:30;7.47;;;6.35;;
29712;SDS011;16623;53.632;10.016;2023-04-24T01:28:56;7.53;;;5.82;;
29712;SDS011;16623;53.632;10.016;2023-04-24T01:31:23;7.32;;;6.15;;
29712;SDS011;16623;53.632;10.016;2023-04-24T01:33:51;7.00;;;6.25;;
29712;SDS011;16623;53.632;10.016;2023-04-24T01:36:17;7.85;;;5.30;;
29712;SDS011;16623;53.632;10.016;2023-04-24T01:38:43;9.20;;;6.25;;
29712;SDS011;16623;53.632;10.016;2023-04-24T01:41:09;6.35;;;5.47;;
29712;SDS011;16623;53.632;10.016;2023-04-24T01:43:35;6.43;;;5.53;;
29712;SDS011;16623;53.632;10.016;2023-04-24T01:46:01;8.27;;;5.68;;
29712;SDS011;16623;53.632;10.016;2023-04-24T01:48:27;7.00;;;5.00;;
29712;SDS011;16623;53.632;10.016;2023-04-24T01:50:53;6.22;;;5.32;;
29712;SDS011;16623;53.632;10.016;2023-04-24T01:53:18;6.18;;;4.80;;
29712;SDS011;16623;53.632;10.016;2023-04-24T01:55:44;6.78;;;4.45;;
29712;SDS011;16623;53.632;10.016;2023-04-24T01:58:10;5.60;;;4.45;;
29712;SDS011;16623;53.632;10.016;2023-04-24T02:00:35;5.57;;;3.85;;
29712;SDS011;16623;53.632;10.016;2023-04-24T02:03:01;8.48;;;5.22;;
29712;SDS011;16623;53.632;10.016;2023-04-24T02:05:27;4.38;;;3.65;;
29712;SDS011;16623;53.632;10.016;2023-04-24T02:07:53;7.05;;;4.47;;
29712;SDS011;16623;53.632;10.016;2023-04-24T02:10:19;3.90;;;3.50;;
29712;SDS011;16623;53.632;10.016;2023-04-24T02:12:47;6.30;;;3.80;;
29712;SDS011;16623;53.632;10.016;2023-04-24T02:15:13;8.20;;;3.17;;
29712;SDS011;16623;53.632;10.016;2023-04-24T02:17:39;6.47;;;3.25;;
29712;SDS011;16623;53.632;10.016;2023-04-24T02:20:06;5.63;;;3.30;;
29712;SDS011;16623;53.632;10.016;2023-04-24T02:22:32;3.30;;;2.80;;
29712;SDS011;16623;53.632;10.016;2023-04-24T02:24:57;2.90;;;2.60;;
29712;SDS011;16623;53.632;10.016;2023-04-24T02:27:23;3.97;;;3.30;;
29712;SDS011;16623;53.632;10.016;2023-04-24T02:29:48;3.03;;;2.40;;
29712;SDS011;16623;53.632;10.016;2023-04-24T02:32:14;2.88;;;2.33;;
29712;SDS011;16623;53.632;10.016;2023-04-24T02:34:40;3.33;;;2.15;;
29712;SDS011;16623;53.632;10.016;2023-04-24T02:37:06;2.17;;;1.98;;
29712;SDS011;16623;53.632;10.016;2023-04-24T02:39:31;5.55;;;2.30;;
29712;SDS011;16623;53.632;10.016;2023-04-24T02:41:58;3.88;;;2.22;;
29712;SDS011;16623;53.632;10.016;2023-04-24T02:44:24;3.38;;;2.45;;
29712;SDS011;16623;53.632;10.016;2023-04-24T02:46:50;3.88;;;2.20;;
29712;SDS011;16623;53.632;10.016;2023-04-24T02:49:15;3.65;;;2.63;;
29712;SDS011;16623;53.632;10.016;2023-04-24T02:51:41;3.00;;;2.60;;
29712;SDS011;16623;53.632;10.016;2023-04-24T02:54:07;3.00;;;2.13;;
29712;SDS011;16623;53.632;10.016;2023-04-24T02:56:35;4.22;;;2.85;;
29712;SDS011;16623;53.632;10.016;2023-04-24T02:59:01;2.47;;;2.22;;
29712;SDS011;16623;53.632;10.016;2023-04-24T03:01:26;3.22;;;2.30;;
29712;SDS011;16623;53.632;10.016;2023-04-24T03:03:52;3.42;;;2.70;;
29712;SDS011;16623;53.632;10.016;2023-04-24T03:06:17;2.97;;;2.67;;
29712;SDS011;16623;53.632;10.016;2023-04-24T03:08:43;6.45;;;3.28;;
29712;SDS011;16623;53.632;10.016;2023-04-24T03:11:08;3.50;;;3.00;;
29712;SDS011;16623;53.632;10.016;2023-04-24T03:13:34;3.13;;;2.47;;
29712;SDS011;16623;53.632;10.016;2023-04-24T03:15:59;4.45;;;3.10;;
29712;SDS011;16623;53.632;10.016;2023-04-24T03:18:25;3.80;;;2.80;;
29712;SDS011;16623;53.632;10.016;2023-04-24T03:20:51;4.82;;;2.30;;
29712;SDS011;16623;53.632;10.016;2023-04-24T03:23:16;3.97;;;2.45;;
29712;SDS011;16623;53.632;10.016;2023-04-24T03:25:42;3.03;;;2.42;;
29712;SDS011;16623;53.632;10.016;2023-04-24T03:28:07;2.10;;;1.90;;
29712;SDS011;16623;53.632;10.016;2023-04-24T03:30:33;2.70;;;2.25;;
29712;SDS011;16623;53.632;10.016;2023-04-24T03:32:59;4.88;;;2.38;;
29712;SDS011;16623;53.632;10.016;2023-04-24T03:35:25;3.20;;;2.35;;
29712;SDS011;16623;53.632;10.016;2023-04-24T03:37:50;2.92;;;2.33;;
29712;SDS011;16623;53.632;10.016;2023-04-24T03:40:16;4.28;;;2.17;;
29712;SDS011;16623;53.632;10.016;2023-04-24T03:42:42;2.58;;;2.30;;
29712;SDS011;16623;53.632;10.016;2023-04-24T03:45:08;2.88;;;2.30;;
29712;SDS011;16623;53.632;10.016;2023-04-24T03:47:34;2.97;;;2.08;;
29712;SDS011;16623;53.632;10.016;2023-04-24T03:49:59;2.88;;;2.10;;
29712;SDS011;16623;53.632;10.016;2023-04-24T03:52:25;2.13;;;1.92;;
29712;SDS011;16623;53.632;10.016;2023-04-24T03:54:50;2.50;;;2.05;;
29712;SDS011;16623;53.632;10.016;2023-04-24T03:57:16;2.95;;;2.35;;
29712;SDS011;16623;53.632;10.016;2023-04-24T03:59:41;2.45;;;1.75;;
29712;SDS011;16623;53.632;10.016;2023-04-24T04:02:07;4.20;;;2.75;;
29712;SDS011;16623;53.632;10.016;2023-04-24T04:04:33;4.95;;;1.75;;
29712;SDS011;16623;53.632;10.016;2023-04-24T04:06:58;2.38;;;1.60;;
29712;SDS011;16623;53.632;10.016;2023-04-24T04:09:27;3.13;;;1.83;;
29712;SDS011;16623;53.632;10.016;2023-04-24T04:11:53;2.25;;;2.03;;
29712;SDS011;16623;53.632;10.016;2023-04-24T04:14:19;4.50;;;2.13;;
29712;SDS011;16623;53.632;10.016;2023-04-24T04:16:44;2.45;;;1.90;;
29712;SDS011;16623;53.632;10.016;2023-04-24T04:19:10;3.63;;;2.20;;
29712;SDS011;16623;53.632;10.016;2023-04-24T04:21:35;2.80;;;1.98;;
29712;SDS011;16623;53.632;10.016;2023-04-24T04:24:01;2.70;;;1.92;;
29712;SDS011;16623;53.632;10.016;2023-04-24T04:26:27;2.85;;;1.52;;
29712;SDS011;16623;53.632;10.016;2023-04-24T04:28:52;2.75;;;1.95;;
29712;SDS011;16623;53.632;10.016;2023-04-24T04:31:19;2.78;;;1.63;;
29712;SDS011;16623;53.632;10.016;2023-04-24T04:33:45;2.28;;;1.70;;
29712;SDS011;16623;53.632;10.016;2023-04-24T04:36:11;3.60;;;1.80;;
29712;SDS011;16623;53.632;10.016;2023-04-24T04:38:37;5.53;;;1.60;;
29712;SDS011;16623;53.632;10.016;2023-04-24T04:41:03;3.03;;;1.50;;
29712;SDS011;16623;53.632;10.016;2023-04-24T04:43:28;2.58;;;1.73;;
29712;SDS011;16623;53.632;10.016;2023-04-24T04:45:55;1.95;;;1.65;;
29712;SDS011;16623;53.632;10.016;2023-04-24T04:48:22;1.45;;;1.35;;
29712;SDS011;16623;53.632;10.016;2023-04-24T04:50:48;5.72;;;1.52;;
29712;SDS011;16623;53.632;10.016;2023-04-24T04:53:13;2.70;;;1.50;;
29712;SDS011;16623;53.632;10.016;2023-04-24T04:55:39;2.38;;;1.52;;
29712;SDS011;16623;53.632;10.016;2023-04-24T04:58:05;1.90;;;1.70;;
29712;SDS011;16623;53.632;10.016;2023-04-24T05:00:31;6.45;;;1.90;;
29712;SDS011;16623;53.632;10.016;2023-04-24T05:03:00;1.92;;;1.60;;
29712;SDS011;16623;53.632;10.016;2023-04-24T05:05:26;2.10;;;1.58;;
29712;SDS011;16623;53.632;10.016;2023-04-24T05:07:52;4.00;;;1.30;;
29712;SDS011;16623;53.632;10.016;2023-04-24T05:10:17;2.33;;;1.52;;
29712;SDS011;16623;53.632;10.016;2023-04-24T05:12:43;4.43;;;1.67;;
29712;SDS011;16623;53.632;10.016;2023-04-24T05:15:09;7.55;;;1.52;;
29712;SDS011;16623;53.632;10.016;2023-04-24T05:17:35;1.25;;;1.15;;
29712;SDS011;16623;53.632;10.016;2023-04-24T05:20:02;2.70;;;1.50;;
29712;SDS011;16623;53.632;10.016;2023-04-24T05:22:30;2.28;;;1.40;;
29712;SDS011;16623;53.632;10.016;2023-04-24T05:24:56;5.65;;;1.58;;
29712;SDS011;16623;53.632;10.016;2023-04-24T05:27:22;3.65;;;1.15;;
29712;SDS011;16623;53.632;10.016;2023-04-24T05:29:47;1.08;;;0.90;;
29712;SDS011;16623;53.632;10.016;2023-04-24T05:32:13;3.20;;;1.50;;
29712;SDS011;16623;53.632;10.016;2023-04-24T05:34:39;2.65;;;1.63;;
29712;SDS011;16623;53.632;10.016;2023-04-24T05:37:05;2.75;;;1.30;;
29712;SDS011;16623;53.632;10.016;2023-04-24T05:39:33;1.50;;;1.08;;
29712;SDS011;16623;53.632;10.016;2023-04-24T05:42:00;2.58;;;1.40;;
29712;SDS011;16623;53.632;10.016;2023-04-24T05:44:26;1.88;;;1.25;;
29712;SDS011;16623;53.632;10.016;2023-04-24T05:46:51;1.30;;;1.20;;
29712;SDS011;16623;53.632;10.016;2023-04-24T05:49:17;1.20;;;1.10;;
29712;SDS011;16623;53.632;10.016;2023-04-24T05:51:42;5.55;;;1.33;;
29712;SDS011;16623;53.632;10.016;2023-04-24T05:54:08;1.20;;;1.10;;
29712;SDS011;16623;53.632;10.016;2023-04-24T05:56:35;2.17;;;1.60;;
29712;SDS011;16623;53.632;10.016;2023-04-24T05:59:01;1.70;;;1.40;;
29712;SDS011;16623;53.632;10.016;2023-04-24T06:01:27;2.92;;;1.60;;
29712;SDS011;16623;53.632;10.016;2023-04-24T06:03:52;2.92;;;1.60;;
29712;SDS011;16623;53.632;10.016;2023-04-24T06:06:18;2.05;;;1.67;;
29712;SDS011;16623;53.632;10.016;2023-04-24T06:08:44;1.95;;;1.48;;
29712;SDS011;16623;53.632;10.016;2023-04-24T06:11:10;5.60;;;1.50;;
29712;SDS011;16623;53.632;10.016;2023-04-24T06:13:35;3.83;;;1.60;;
29712;SDS011;16623;53.632;10.016;2023-04-24T06:16:01;3.25;;;1.98;;
29712;SDS011;16623;53.632;10.016;2023-04-24T06:18:27;5.57;;;2.08;;
29712;SDS011;16623;53.632;10.016;2023-04-24T06:20:52;1.73;;;1.55;;
29712;SDS011;16623;53.632;10.016;2023-04-24T06:23:18;2.13;;;1.45;;
29712;SDS011;16623;53.632;10.016;2023-04-24T06:25:44;1.83;;;1.30;;
29712;SDS011;16623;53.632;10.016;2023-04-24T06:28:09;2.67;;;1.83;;
29712;SDS011;16623;53.632;10.016;2023-04-24T06:30:35;7.03;;;1.83;;
29712;SDS011;16623;53.632;10.016;2023-04-24T06:33:00;3.65;;;1.75;;
29712;SDS011;16623;53.632;10.016;2023-04-24T06:35:26;2.42;;;1.50;;
29712;SDS011;16623;53.632;10.016;2023-04-24T06:37:51;1.95;;;1.75;;
29712;SDS011;16623;53.632;10.016;2023-04-24T06:40:17;1.52;;;1.38;;
29712;SDS011;16623;53.632;10.016;2023-04-24T06:42:44;2.30;;;1.70;;
29712;SDS011;16623;53.632;10.016;2023-04-24T06:45:10;2.60;;;1.92;;
29712;SDS011;16623;53.632;10.016;2023-04-24T06:47:36;2.80;;;1.80;;
29712;SDS011;16623;53.632;10.016;2023-04-24T06:50:03;5.25;;;2.38;;
29712;SDS011;16623;53.632;10.016;2023-04-24T06:52:29;2.58;;;1.80;;
29712;SDS011;16623;53.632;10.016;2023-04-24T06:55:01;4.18;;;2.25;;
29712;SDS011;16623;53.632;10.016;2023-04-24T06:57:27;4.65;;;2.15;;
29712;SDS011;16623;53.632;10.016;2023-04-24T06:59:53;2.65;;;1.92;;
29712;SDS011;16623;53.632;10.016;2023-04-24T07:02:19;3.75;;;1.92;;
29712;SDS011;16623;53.632;10.016;2023-04-24T07:04:45;2.05;;;1.75;;
29712;SDS011;16623;53.632;10.016;2023-04-24T07:07:11;2.88;;;1.77;;
29712;SDS011;16623;53.632;10.016;2023-04-24T07:09:39;2.35;;;1.58;;
29712;SDS011;16623;53.632;10.016;2023-04-24T07:12:07;2.55;;;1.60;;
29712;SDS011;16623;53.632;10.016;2023-04-24T07:14:35;2.08;;;1.80;;
29712;SDS011;16623;53.632;10.016;2023-04-24T07:17:00;2.08;;;1.75;;
29712;SDS011;16623;53.632;10.016;2023-04-24T07:19:31;2.65;;;1.88;;
29712;SDS011;16623;53.632;10.016;2023-04-24T07:21:59;2.25;;;2.05;;
29712;SDS011;16623;53.632;10.016;2023-04-24T07:24:25;2.25;;;2.05;;
29712;SDS011;16623;53.632;10.016;2023-04-24T07:26:51;5.03;;;2.00;;
29712;SDS011;16623;53.632;10.016;2023-04-24T07:29:17;2.40;;;2.20;;
29712;SDS011;16623;53.632;10.016;2023-04-24T07:31:42;2.95;;;2.00;;
29712;SDS011;16623;53.632;10.016;2023-04-24T07:34:08;3.78;;;2.25;;
29712;SDS011;16623;53.632;10.016;2023-04-24T07:36:34;2.00;;;1.85;;
29712;SDS011;16623;53.632;10.016;2023-04-24T07:39:00;3.83;;;2.60;;
29712;SDS011;16623;53.632;10.016;2023-04-24T07:41:26;6.05;;;2.50;;
29712;SDS011;16623;53.632;10.016;2023-04-24T07:43:52;4.22;;;2.38;;
29712;SDS011;16623;53.632;10.016;2023-04-24T07:46:20;3.22;;;2.50;;
29712;SDS011;16623;53.632;10.016;2023-04-24T07:48:46;6.50;;;2.83;;
29712;SDS011;16623;53.632;10.016;2023-04-24T07:51:14;2.58;;;2.20;;
29712;SDS011;16623;53.632;10.016;2023-04-24T07:53:40;2.72;;;2.35;;
29712;SDS011;16623;53.632;10.016;2023-04-24T07:56:06;3.40;;;2.15;;
29712;SDS011;16623;53.632;10.016;2023-04-24T07:58:31;4.90;;;2.50;;
29712;SDS011;16623;53.632;10.016;2023-04-24T08:00:57;6.38;;;2.90;;
29712;SDS011;16623;53.632;10.016;2023-04-24T08:03:22;2.88;;;2.67;;
29712;SDS011;16623;53.632;10.016;2023-04-24T08:05:49;3.45;;;2.90;;
29712;SDS011;16623;53.632;10.016;2023-04-24T08:08:16;4.45;;;3.00;;
29712;SDS011;16623;53.632;10.016;2023-04-24T08:10:42;4.05;;;3.08;;
29712;SDS011;16623;53.632;10.016;2023-04-24T08:13:07;3.90;;;3.38;;
29712;SDS011;16623;53.632;10.016;2023-04-24T08:15:33;3.95;;;3.00;;
29712;SDS011;16623;53.632;10.016;2023-04-24T08:17:59;5.47;;;2.75;;
29712;SDS011;16623;53.632;10.016;2023-04-24T08:20:25;4.28;;;3.25;;
29712;SDS011;16623;53.632;10.016;2023-04-24T08:22:50;7.03;;;3.40;;
29712;SDS011;16623;53.632;10.016;2023-04-24T08:25:16;5.13;;;3.28;;
29712;SDS011;16623;53.632;10.016;2023-04-24T08:27:43;4.35;;;3.08;;
29712;SDS011;16623;53.632;10.016;2023-04-24T08:30:09;3.42;;;3.13;;
29712;SDS011;16623;53.632;10.016;2023-04-24T08:32:35;7.82;;;3.83;;
29712;SDS011;16623;53.632;10.016;2023-04-24T08:35:02;5.95;;;4.68;;
29712;SDS011;16623;53.632;10.016;2023-04-24T08:37:28;10.98;;;4.93;;
29712;SDS011;16623;53.632;10.016;2023-04-24T08:39:54;6.47;;;3.78;;
29712;SDS011;16623;53.632;10.016;2023-04-24T08:42:20;21.55;;;5.25;;
29712;SDS011;16623;53.632;10.016;2023-04-24T08:44:46;5.47;;;4.13;;
29712;SDS011;16623;53.632;10.016;2023-04-24T08:47:13;8.43;;;4.30;;
29712;SDS011;16623;53.632;10.016;2023-04-24T08:49:40;5.65;;;3.67;;
29712;SDS011;16623;53.632;10.016;2023-04-24T08:52:07;32.80;;;6.82;;
29712;SDS011;16623;53.632;10.016;2023-04-24T08:54:34;4.65;;;3.33;;
29712;SDS011;16623;53.632;10.016;2023-04-24T08:57:00;15.18;;;4.10;;
29712;SDS011;16623;53.632;10.016;2023-04-24T08:59:28;5.43;;;4.28;;
29712;SDS011;16623;53.632;10.016;2023-04-24T09:01:55;227.00;;;18.73;;
29712;SDS011;16623;53.632;10.016;2023-04-24T09:04:21;4.90;;;3.92;;
29712;SDS011;16623;53.632;10.016;2023-04-24T09:06:49;3.83;;;3.40;;
29712;SDS011;16623;53.632;10.016;2023-04-24T09:09:16;6.15;;;3.75;;
29712;SDS011;16623;53.632;10.016;2023-04-24T09:11:43;4.85;;;4.20;;
29712;SDS011;16623;53.632;10.016;2023-04-24T09:14:09;5.68;;;4.53;;
29712;SDS011;16623;53.632;10.016;2023-04-24T09:16:36;9.40;;;5.95;;
29712;SDS011;16623;53.632;10.016;2023-04-24T09:19:01;6.22;;;4.18;;
29712;SDS011;16623;53.632;10.016;2023-04-24T09:21:31;4.68;;;3.92;;
29712;SDS011;16623;53.632;10.016;2023-04-24T09:23:59;7.30;;;4.60;;
29712;SDS011;16623;53.632;10.016;2023-04-24T09:26:25;14.88;;;5.40;;
29712;SDS011;16623;53.632;10.016;2023-04-24T09:28:53;9.63;;;4.57;;
29712;SDS011;16623;53.632;10.016;2023-04-24T09:31:19;7.00;;;4.28;;
29712;SDS011;16623;53.632;10.016;2023-04-24T09:34:20;14.07;;;5.50;;
29712;SDS011;16623;53.632;10.016;2023-04-24T09:36:39;11.48;;;5.20;;
29712;SDS011;16623;53.632;10.016;2023-04-24T09:39:13;7.30;;;4.60;;
29712;SDS011;16623;53.632;10.016;2023-04-24T09:44:25;5.88;;;4.32;;
29712;SDS011;16623;53.632;10.016;2023-04-24T09:46:55;5.78;;;4.30;;
29712;SDS011;16623;53.632;10.016;2023-04-24T09:49:23;3.60;;;3.10;;
29712;SDS011;16623;53.632;10.016;2023-04-24T09:51:52;7.00;;;4.70;;
29712;SDS011;16623;53.632;10.016;2023-04-24T09:54:34;11.50;;;4.88;;
29712;SDS011;16623;53.632;10.016;2023-04-24T09:57:02;6.10;;;5.47;;
29712;SDS011;16623;53.632;10.016;2023-04-24T09:59:28;6.20;;;4.72;;
29712;SDS011;16623;53.632;10.016;2023-04-24T10:01:54;49.63;;;7.45;;
29712;SDS011;16623;53.632;10.016;2023-04-24T10:04:22;8.18;;;5.13;;
29712;SDS011;16623;53.632;10.016;2023-04-24T10:06:50;7.07;;;5.30;;
29712;SDS011;16623;53.632;10.016;2023-04-24T10:09:17;11.13;;;6.25;;
29712;SDS011;16623;53.632;10.016;2023-04-24T10:11:46;10.95;;;6.13;;
29712;SDS011;16623;53.632;10.016;2023-04-24T10:14:13;6.55;;;5.03;;
29712;SDS011;16623;53.632;10.016;2023-04-24T10:16:43;20.77;;;6.88;;
29712;SDS011;16623;53.632;10.016;2023-04-24T10:19:13;13.85;;;6.13;;
29712;SDS011;16623;53.632;10.016;2023-04-24T10:21:40;9.73;;;6.30;;
29712;SDS011;16623;53.632;10.016;2023-04-24T10:24:13;11.85;;;6.88;;
29712;SDS011;16623;53.632;10.016;2023-04-24T10:26:40;10.15;;;6.30;;
29712;SDS011;16623;53.632;10.016;2023-04-24T10:29:07;9.50;;;6.72;;
29712;SDS011;16623;53.632;10.016;2023-04-24T10:31:35;9.07;;;6.35;;
29712;SDS011;16623;53.632;10.016;2023-04-24T10:34:03;9.93;;;6.43;;
29712;SDS011;16623;53.632;10.016;2023-04-24T10:36:30;13.07;;;7.13;;
29712;SDS011;16623;53.632;10.016;2023-04-24T10:38:59;8.68;;;6.50;;
29712;SDS011;16623;53.632;10.016;2023-04-24T10:41:27;12.65;;;7.88;;
29712;SDS011;16623;53.632;10.016;2023-04-24T10:44:05;16.17;;;7.53;;
29712;SDS011;16623;53.632;10.016;2023-04-24T10:46:33;13.07;;;7.70;;
29712;SDS011;16623;53.632;10.016;2023-04-24T10:48:59;11.05;;;8.43;;
29712;SDS011;16623;53.632;10.016;2023-04-24T10:54:27;11.35;;;8.98;;
29712;SDS011;16623;53.632;10.016;2023-04-24T10:59:48;13.30;;;8.82;;
29712;SDS011;16623;53.632;10.016;2023-04-24T11:02:16;10.32;;;7.80;;
29712;SDS011;16623;53.632;10.016;2023-04-24T11:04:42;14.82;;;8.93;;
29712;SDS011;16623;53.632;10.016;2023-04-24T11:07:08;14.65;;;9.30;;
29712;SDS011;16623;53.632;10.016;2023-04-24T11:09:35;13.35;;;8.70;;
29712;SDS011;16623;53.632;10.016;2023-04-24T11:17:33;13.00;;;8.20;;
29712;SDS011;16623;53.632;10.016;2023-04-24T11:20:08;11.77;;;9.02;;
29712;SDS011;16623;53.632;10.016;2023-04-24T11:22:37;10.55;;;8.05;;
29712;SDS011;16623;53.632;10.016;2023-04-24T11:25:05;11.13;;;8.30;;
29712;SDS011;16623;53.632;10.016;2023-04-24T11:27:38;12.35;;;8.48;;
29712;SDS011;16623;53.632;10.016;2023-04-24T11:30:06;17.88;;;8.30;;
29712;SDS011;16623;53.632;10.016;2023-04-24T11:32:39;13.18;;;7.90;;
29712;SDS011;16623;53.632;10.016;2023-04-24T11:35:07;8.50;;;6.13;;
29712;SDS011;16623;53.632;10.016;2023-04-24T11:37:40;13.20;;;7.95;;
29712;SDS011;16623;53.632;10.016;2023-04-24T11:40:08;10.10;;;7.20;;
29712;SDS011;16623;53.632;10.016;2023-04-24T11:42:39;15.52;;;7.85;;
29712;SDS011;16623;53.632;10.016;2023-04-24T11:45:24;11.50;;;7.55;;
29712;SDS011;16623;53.632;10.016;2023-04-24T11:47:52;15.55;;;7.60;;
29712;SDS011;16623;53.632;10.016;2023-04-24T11:50:18;9.45;;;7.25;;
29712;SDS011;16623;53.632;10.016;2023-04-24T11:52:47;11.25;;;7.15;;
29712;SDS011;16623;53.632;10.016;2023-04-24T11:57:39;9.68;;;7.28;;
29712;SDS011;16623;53.632;10.016;2023-04-24T12:00:14;11.15;;;7.72;;
29712;SDS011;16623;53.632;10.016;2023-04-24T12:02:41;10.30;;;7.38;;
29712;SDS011;16623;53.632;10.016;2023-04-24T12:05:07;10.43;;;7.55;;
29712;SDS011;16623;53.632;10.016;2023-04-24T12:07:36;10.15;;;7.10;;
29712;SDS011;16623;53.632;10.016;2023-04-24T12:10:07;9.85;;;7.45;;
29712;SDS011;16623;53.632;10.016;2023-04-24T12:12:34;9.23;;;6.70;;
29712;SDS011;16623;53.632;10.016;2023-04-24T12:15:00;9.07;;;6.32;;
29712;SDS011;16623;53.632;10.016;2023-04-24T12:17:32;10.55;;;6.90;;
29712;SDS011;16623;53.632;10.016;2023-04-24T12:20:05;7.47;;;5.70;;
29712;SDS011;16623;53.632;10.016;2023-04-24T12:22:45;8.60;;;6.40;;
29712;SDS011;16623;53.632;10.016;2023-04-24T12:25:12;8.80;;;5.82;;
29712;SDS011;16623;53.632;10.016;2023-04-24T12:27:40;7.75;;;5.75;;
29712;SDS011;16623;53.632;10.016;2023-04-24T12:30:09;8.30;;;5.90;;
29712;SDS011;16623;53.632;10.016;2023-04-24T12:32:40;6.22;;;5.13;;
29712;SDS011;16623;53.632;10.016;2023-04-24T12:35:07;11.55;;;4.88;;
29712;SDS011;16623;53.632;10.016;2023-04-24T12:37:33;8.80;;;5.65;;
29712;SDS011;16623;53.632;10.016;2023-04-24T12:40:02;12.05;;;6.45;;
29712;SDS011;16623;53.632;10.016;2023-04-24T12:42:33;9.95;;;4.95;;
29712;SDS011;16623;53.632;10.016;2023-04-24T12:45:00;10.38;;;5.80;;
29712;SDS011;16623;53.632;10.016;2023-04-24T12:47:31;10.50;;;5.75;;
29712;SDS011;16623;53.632;10.016;2023-04-24T12:49:58;8.27;;;5.85;;
29712;SDS011;16623;53.632;10.016;2023-04-24T12:52:24;6.00;;;5.40;;
29712;SDS011;16623;53.632;10.016;2023-04-24T12:54:55;10.38;;;5.97;;
29712;SDS011;16623;53.632;10.016;2023-04-24T12:57:23;7.65;;;5.60;;
29712;SDS011;16623;53.632;10.016;2023-04-24T12:59:50;10.10;;;5.53;;
29712;SDS011;16623;53.632;10.016;2023-04-24T13:02:17;13.88;;;5.82;;
29712;SDS011;16623;53.632;10.016;2023-04-24T13:04:48;8.30;;;5.88;;
29712;SDS011;16623;53.632;10.016;2023-04-24T13:07:14;9.55;;;5.07;;
29712;SDS011;16623;53.632;10.016;2023-04-24T13:09:41;7.78;;;5.05;;
29712;SDS011;16623;53.632;10.016;2023-04-24T13:12:08;6.28;;;5.50;;
29712;SDS011;16623;53.632;10.016;2023-04-24T13:14:34;7.60;;;5.57;;
29712;SDS011;16623;53.632;10.016;2023-04-24T13:17:00;9.35;;;6.20;;
29712;SDS011;16623;53.632;10.016;2023-04-24T13:19:26;9.10;;;5.93;;
29712;SDS011;16623;53.632;10.016;2023-04-24T13:21:52;9.43;;;5.57;;
29712;SDS011;16623;53.632;10.016;2023-04-24T13:24:19;7.72;;;5.88;;
29712;SDS011;16623;53.632;10.016;2023-04-24T13:26:45;7.43;;;5.65;;
29712;SDS011;16623;53.632;10.016;2023-04-24T13:29:10;7.55;;;5.70;;
29712;SDS011;16623;53.632;10.016;2023-04-24T13:31:36;7.82;;;6.05;;
29712;SDS011;16623;53.632;10.016;2023-04-24T13:34:02;5.70;;;5.03;;
29712;SDS011;16623;53.632;10.016;2023-04-24T13:36:28;6.38;;;5.10;;
29712;SDS011;16623;53.632;10.016;2023-04-24T13:38:55;12.15;;;5.90;;
29712;SDS011;16623;53.632;10.016;2023-04-24T13:41:20;7.15;;;4.85;;
29712;SDS011;16623;53.632;10.016;2023-04-24T13:43:46;7.20;;;4.97;;
29712;SDS011;16623;53.632;10.016;2023-04-24T13:46:12;6.32;;;5.10;;
29712;SDS011;16623;53.632;10.016;2023-04-24T13:48:37;6.70;;;4.78;;
29712;SDS011;16623;53.632;10.016;2023-04-24T13:51:03;7.90;;;4.97;;
29712;SDS011;16623;53.632;10.016;2023-04-24T13:53:28;6.35;;;5.05;;
29712;SDS011;16623;53.632;10.016;2023-04-24T13:55:54;7.05;;;4.82;;
29712;SDS011;16623;53.632;10.016;2023-04-24T13:58:20;7.43;;;5.00;;
29712;SDS011;16623;53.632;10.016;2023-04-24T14:00:45;5.20;;;4.53;;
29712;SDS011;16623;53.632;10.016;2023-04-24T14:03:11;7.20;;;4.82;;
29712;SDS011;16623;53.632;10.016;2023-04-24T14:05:36;5.55;;;5.00;;
29712;SDS011;16623;53.632;10.016;2023-04-24T14:08:02;6.13;;;5.53;;
29712;SDS011;16623;53.632;10.016;2023-04-24T14:10:27;6.57;;;4.85;;
29712;SDS011;16623;53.632;10.016;2023-04-24T14:12:53;10.15;;;5.28;;
29712;SDS011;16623;53.632;10.016;2023-04-24T14:15:20;5.32;;;4.32;;
29712;SDS011;16623;53.632;10.016;2023-04-24T14:17:47;6.97;;;5.15;;
29712;SDS011;16623;53.632;10.016;2023-04-24T14:20:13;5.45;;;4.55;;
29712;SDS011;16623;53.632;10.016;2023-04-24T14:22:39;8.02;;;4.80;;
29712;SDS011;16623;53.632;10.016;2023-04-24T14:25:05;8.68;;;4.45;;
29712;SDS011;16623;53.632;10.016;2023-04-24T14:27:32;8.20;;;4.15;;
29712;SDS011;16623;53.632;10.016;2023-04-24T14:30:00;4.72;;;4.13;;
29712;SDS011;16623;53.632;10.016;2023-04-24T14:32:26;5.45;;;4.22;;
29712;SDS011;16623;53.632;10.016;2023-04-24T14:34:53;8.75;;;5.00;;
29712;SDS011;16623;53.632;10.016;2023-04-24T14:37:18;11.63;;;4.55;;
29712;SDS011;16623;53.632;10.016;2023-04-24T14:39:44;11.10;;;6.32;;
29712;SDS011;16623;53.632;10.016;2023-04-24T14:42:10;7.60;;;6.25;;
29712;SDS011;16623;53.632;10.016;2023-04-24T14:44:36;10.43;;;7.43;;